createdAt,value
2024-05-09T00:01:44.276Z,10.20
2024-05-09T00:03:46.944Z,9.99
2024-05-09T00:05:48.697Z,9.90
2024-05-09T00:07:50.474Z,10.00
2024-05-09T00:09:52.148Z,10.13
2024-05-09T00:11:53.865Z,10.26
2024-05-09T00:13:55.805Z,10.30
2024-05-09T00:15:57.543Z,10.41
2024-05-09T00:17:59.383Z,10.42
2024-05-09T00:20:01.415Z,10.44
2024-05-09T00:22:04.049Z,10.39
2024-05-09T00:24:05.924Z,10.31
2024-05-09T00:26:07.948Z,10.35
2024-05-09T00:28:09.778Z,10.38
2024-05-09T00:30:14.542Z,10.39
2024-05-09T00:32:23.682Z,10.48
2024-05-09T00:34:25.537Z,10.52
2024-05-09T00:36:27.260Z,10.56
2024-05-09T00:38:28.951Z,10.54
2024-05-09T00:40:41.628Z,10.59
2024-05-09T00:42:46.979Z,10.52
2024-05-09T00:44:48.643Z,10.47
2024-05-09T00:46:54.674Z,10.46
2024-05-09T00:48:56.872Z,10.40
2024-05-09T00:50:59.310Z,10.33
2024-05-09T00:53:01.619Z,10.18
2024-05-09T00:55:03.459Z,10.07
2024-05-09T00:57:05.362Z,9.94
2024-05-09T00:59:07.230Z,9.95
2024-05-09T01:01:09.336Z,9.77
2024-05-09T01:03:13.216Z,9.63
2024-05-09T01:05:16.255Z,9.48
2024-05-09T01:07:18.053Z,9.51
2024-05-09T01:09:19.765Z,9.34
2024-05-09T01:11:21.602Z,9.15
2024-05-09T01:13:23.335Z,9.01
2024-05-09T01:15:24.981Z,8.87
2024-05-09T01:17:27.357Z,8.94
2024-05-09T01:19:30.667Z,8.82
2024-05-09T01:21:32.917Z,8.68
2024-05-09T01:23:35.456Z,8.64
2024-05-09T01:25:37.233Z,8.55
2024-05-09T01:27:38.970Z,8.49
2024-05-09T01:29:40.623Z,8.46
2024-05-09T01:31:42.577Z,8.56
2024-05-09T01:33:44.516Z,8.48
2024-05-09T01:35:46.293Z,8.51
2024-05-09T01:37:47.983Z,8.42
2024-05-09T01:39:49.784Z,8.42
2024-05-09T01:41:51.648Z,8.32
2024-05-09T01:43:53.313Z,8.30
2024-05-09T01:45:55.111Z,8.38
2024-05-09T01:47:56.875Z,8.31
2024-05-09T01:49:59.164Z,8.21
2024-05-09T01:52:00.884Z,8.16
2024-05-09T01:54:02.840Z,8.04
2024-05-09T01:56:05.299Z,8.12
2024-05-09T01:58:07.493Z,7.94
2024-05-09T02:00:10.399Z,7.82
2024-05-09T02:02:12.871Z,7.90
2024-05-09T02:04:14.853Z,7.89
2024-05-09T02:06:16.637Z,7.90
2024-05-09T02:08:20.845Z,7.83
2024-05-09T02:10:31.689Z,7.77
2024-05-09T02:12:34.568Z,7.67
2024-05-09T02:14:36.251Z,7.67
2024-05-09T02:16:37.945Z,7.62
2024-05-09T02:18:40.212Z,7.55
2024-05-09T02:20:43.036Z,7.66
2024-05-09T02:22:45.366Z,7.69
2024-05-09T02:24:47.063Z,7.57
2024-05-09T02:26:48.710Z,7.47
2024-05-09T02:28:50.454Z,7.44
2024-05-09T02:30:52.169Z,7.42
2024-05-09T02:32:53.970Z,7.48
2024-05-09T02:34:55.816Z,7.47
2024-05-09T02:36:58.410Z,7.38
2024-05-09T02:39:01.068Z,7.30
2024-05-09T02:41:02.829Z,7.32
2024-05-09T02:43:04.818Z,7.33
2024-05-09T02:45:06.847Z,7.38
2024-05-09T02:47:08.736Z,7.40
2024-05-09T02:49:10.774Z,7.42
2024-05-09T02:51:12.685Z,7.36
2024-05-09T02:53:14.860Z,7.34
2024-05-09T02:55:16.658Z,7.27
2024-05-09T02:57:18.323Z,7.12
2024-05-09T02:59:20.020Z,7.15
2024-05-09T03:01:22.226Z,7.11
2024-05-09T03:03:24.486Z,7.02
2024-05-09T03:05:26.365Z,6.96
2024-05-09T03:07:28.066Z,6.96
2024-05-09T03:09:29.735Z,7.01
2024-05-09T03:11:31.884Z,6.94
2024-05-09T03:13:33.598Z,6.86
2024-05-09T03:15:35.578Z,6.87
2024-05-09T03:17:40.458Z,6.85
2024-05-09T03:19:42.745Z,6.90
2024-05-09T03:21:44.429Z,6.92
2024-05-09T03:23:46.209Z,6.95
2024-05-09T03:25:47.936Z,6.93
2024-05-09T03:27:50.047Z,6.90
2024-05-09T03:29:51.735Z,6.79
2024-05-09T03:31:53.463Z,6.75
2024-05-09T03:33:55.346Z,6.81
2024-05-09T03:35:57.071Z,6.78
2024-05-09T03:37:58.816Z,6.88
2024-05-09T03:40:02.080Z,6.80
2024-05-09T03:42:04.928Z,6.77
2024-05-09T03:44:08.607Z,6.58
2024-05-09T03:46:10.279Z,6.57
2024-05-09T03:48:12.687Z,6.51
2024-05-09T03:50:22.040Z,6.49
2024-05-09T03:52:27.813Z,6.51
2024-05-09T03:54:29.473Z,6.55
2024-05-09T03:56:31.688Z,6.59
2024-05-09T03:58:33.955Z,6.63
2024-05-09T04:00:39.219Z,6.63
2024-05-09T04:02:43.113Z,6.58
2024-05-09T04:04:45.196Z,6.49
2024-05-09T04:06:48.391Z,6.56
2024-05-09T04:08:50.140Z,6.54
2024-05-09T04:10:52.662Z,6.48
2024-05-09T04:12:54.431Z,6.49
2024-05-09T04:14:56.068Z,6.46
2024-05-09T04:16:57.754Z,6.53
2024-05-09T04:18:59.468Z,6.63
2024-05-09T04:21:03.193Z,6.74
2024-05-09T04:23:13.112Z,6.79
2024-05-09T04:25:15.510Z,6.83
2024-05-09T04:27:17.151Z,6.78
2024-05-09T04:29:18.874Z,6.83
2024-05-09T04:31:20.572Z,6.88
2024-05-09T04:33:22.616Z,6.93
2024-05-09T04:35:24.754Z,7.00
2024-05-09T04:37:26.640Z,7.05
2024-05-09T04:39:28.459Z,7.11
2024-05-09T04:41:30.591Z,7.28
2024-05-09T04:43:35.056Z,7.31
2024-05-09T04:45:36.975Z,7.32
2024-05-09T04:47:38.878Z,7.44
2024-05-09T04:49:42.270Z,7.57
2024-05-09T04:51:43.956Z,7.68
2024-05-09T04:53:45.658Z,7.72
2024-05-09T04:55:47.703Z,7.73
2024-05-09T04:57:49.432Z,7.78
2024-05-09T04:59:51.167Z,7.87
2024-05-09T05:01:53.005Z,7.95
2024-05-09T05:03:55.962Z,8.02
2024-05-09T05:05:59.316Z,8.17
2024-05-09T05:08:01.213Z,8.30
2024-05-09T05:10:04.484Z,8.46
2024-05-09T05:12:28.131Z,8.68
2024-05-09T05:14:30.110Z,8.88
2024-05-09T05:16:31.872Z,9.06
2024-05-09T05:18:34.172Z,9.19
2024-05-09T05:20:35.915Z,9.35
2024-05-09T05:22:37.907Z,9.46
2024-05-09T05:24:39.556Z,9.54
2024-05-09T05:26:41.653Z,9.69
2024-05-09T05:28:44.002Z,9.89
2024-05-09T05:30:46.502Z,10.03
2024-05-09T05:32:48.367Z,10.19
2024-05-09T05:34:50.095Z,10.39
2024-05-09T05:36:52.226Z,10.55
2024-05-09T05:38:53.932Z,10.68
2024-05-09T05:40:55.953Z,10.81
2024-05-09T05:42:57.810Z,10.94
2024-05-09T05:44:59.829Z,11.05
2024-05-09T05:47:01.533Z,11.19
2024-05-09T05:49:03.680Z,11.34
2024-05-09T05:51:07.686Z,11.44
2024-05-09T05:53:10.697Z,11.61
2024-05-09T05:55:12.880Z,11.81
2024-05-09T05:57:16.285Z,11.95
2024-05-09T05:59:18.320Z,12.13
2024-05-09T06:01:20.470Z,12.25
2024-05-09T06:03:22.223Z,12.40
2024-05-09T06:05:26.030Z,12.59
2024-05-09T06:07:29.295Z,12.77
2024-05-09T06:09:31.282Z,12.92
2024-05-09T06:11:35.513Z,13.19
2024-05-09T06:13:37.580Z,13.37
2024-05-09T06:15:40.230Z,13.53
2024-05-09T06:17:42.072Z,13.71
2024-05-09T06:19:43.940Z,13.81
2024-05-09T06:21:45.689Z,13.96
2024-05-09T06:23:48.855Z,14.13
2024-05-09T06:25:51.066Z,14.24
2024-05-09T06:27:53.268Z,14.39
2024-05-09T06:29:55.007Z,14.54
2024-05-09T06:31:59.935Z,14.69
2024-05-09T06:34:02.010Z,14.79
2024-05-09T06:36:03.945Z,14.91
2024-05-09T06:38:08.621Z,14.94
2024-05-09T06:40:12.542Z,15.05
2024-05-09T06:42:16.286Z,15.11
2024-05-09T06:44:18.071Z,15.22
2024-05-09T06:46:19.774Z,15.39
2024-05-09T06:48:22.264Z,15.35
2024-05-09T06:50:28.271Z,15.51
2024-05-09T06:52:33.540Z,15.57
2024-05-09T06:54:35.510Z,15.67
2024-05-09T06:56:38.765Z,15.72
2024-05-09T06:58:40.488Z,15.86
2024-05-09T07:00:43.229Z,15.91
2024-05-09T07:02:45.040Z,16.03
2024-05-09T07:04:47.020Z,16.16
2024-05-09T07:06:49.768Z,16.22
2024-05-09T07:08:52.632Z,16.36
2024-05-09T07:10:54.535Z,16.38
2024-05-09T07:12:56.240Z,16.48
2024-05-09T07:14:57.956Z,16.52
2024-05-09T07:17:00.062Z,16.70
2024-05-09T07:19:02.002Z,16.69
2024-05-09T07:21:05.069Z,16.72
2024-05-09T07:23:11.023Z,16.82
2024-05-09T07:25:12.909Z,16.95
2024-05-09T07:27:14.565Z,17.02
2024-05-09T07:29:16.282Z,17.39
2024-05-09T07:31:18.043Z,17.85
2024-05-09T07:33:22.619Z,18.22
2024-05-09T07:35:25.768Z,18.50
2024-05-09T07:37:27.558Z,18.85
2024-05-09T07:39:29.391Z,19.21
2024-05-09T07:41:31.809Z,19.33
2024-05-09T07:43:33.514Z,19.43
2024-05-09T07:49:11.985Z,19.58
2024-05-09T07:51:54.751Z,19.63
2024-05-09T07:54:34.355Z,20.13
2024-05-09T07:56:36.396Z,20.36
2024-05-09T07:58:39.077Z,20.37
2024-05-09T08:00:41.584Z,20.26
2024-05-09T08:02:43.511Z,20.40
2024-05-09T08:04:45.350Z,20.36
2024-05-09T08:06:47.268Z,20.40
2024-05-09T08:08:49.378Z,20.55
2024-05-09T08:10:51.280Z,20.37
2024-05-09T08:12:53.921Z,20.06
2024-05-09T08:14:56.299Z,20.06
2024-05-09T08:16:58.004Z,20.26
2024-05-09T08:18:59.991Z,20.23
2024-05-09T08:21:01.795Z,20.11
2024-05-09T08:23:03.658Z,20.17
2024-05-09T08:25:05.792Z,20.03
2024-05-09T08:27:07.516Z,20.01
2024-05-09T08:29:09.979Z,20.05
2024-05-09T08:31:11.887Z,19.96
2024-05-09T08:33:13.864Z,19.83
2024-05-09T08:35:15.803Z,19.61
2024-05-09T08:37:22.390Z,19.64
2024-05-09T08:39:27.074Z,19.72
2024-05-09T08:41:31.322Z,19.75
2024-05-09T08:43:33.036Z,19.73
2024-05-09T08:45:36.114Z,19.67
2024-05-09T08:47:37.889Z,19.77
2024-05-09T08:49:41.687Z,19.71
2024-05-09T08:51:46.668Z,19.77
2024-05-09T08:53:48.355Z,20.03
2024-05-09T08:55:51.358Z,20.24
2024-05-09T08:57:53.795Z,20.19
2024-05-09T08:59:56.052Z,20.21
2024-05-09T09:01:59.718Z,19.66
2024-05-09T09:04:04.364Z,19.62
2024-05-09T09:06:08.901Z,19.59
2024-05-09T09:08:10.888Z,19.53
2024-05-09T09:10:17.848Z,19.51
2024-05-09T09:12:27.223Z,19.61
2024-05-09T09:14:28.884Z,19.52
2024-05-09T09:16:34.795Z,19.66
2024-05-09T09:18:36.953Z,19.76
2024-05-09T09:20:38.800Z,19.81
2024-05-09T09:22:40.520Z,19.89
2024-05-09T09:24:42.250Z,20.01
2024-05-09T09:26:45.224Z,19.85
2024-05-09T09:28:47.312Z,19.86
2024-05-09T09:30:49.120Z,19.89
2024-05-09T09:32:53.256Z,19.86
2024-05-09T09:34:56.272Z,19.87
2024-05-09T09:37:05.963Z,19.95
2024-05-09T09:39:09.519Z,20.05
2024-05-09T09:41:12.219Z,20.32
2024-05-09T09:43:18.829Z,20.38
2024-05-09T09:45:20.922Z,20.39
2024-05-09T09:47:25.020Z,20.54
2024-05-09T09:49:28.376Z,20.78
2024-05-09T09:51:31.806Z,20.98
2024-05-09T09:53:35.023Z,21.03
2024-05-09T09:55:37.673Z,21.10
2024-05-09T09:57:41.395Z,21.09
2024-05-09T09:59:46.287Z,20.76
2024-05-09T10:01:48.092Z,20.82
2024-05-09T10:03:50.027Z,20.88
2024-05-09T10:05:52.609Z,20.93
2024-05-09T10:07:55.138Z,20.82
2024-05-09T10:09:57.929Z,20.87
2024-05-09T10:12:09.752Z,20.75
2024-05-09T10:14:11.901Z,20.73
2024-05-09T10:16:21.077Z,20.70
2024-05-09T10:18:27.245Z,20.77
2024-05-09T10:20:45.405Z,20.79
2024-05-09T10:22:50.506Z,20.87
2024-05-09T10:24:53.961Z,20.97
2024-05-09T10:26:56.034Z,20.99
2024-05-09T10:28:58.685Z,21.09
2024-05-09T10:31:14.745Z,21.10
2024-05-09T10:33:19.820Z,21.12
2024-05-09T10:35:22.614Z,21.11
2024-05-09T10:37:25.610Z,21.07
2024-05-09T10:39:34.686Z,21.05
2024-05-09T10:41:38.436Z,20.92
2024-05-09T10:43:41.331Z,20.90
2024-05-09T10:45:43.095Z,20.93
2024-05-09T10:47:45.728Z,20.95
2024-05-09T10:49:48.643Z,20.88
2024-05-09T10:51:50.937Z,20.92
2024-05-09T10:53:52.725Z,20.92
2024-05-09T10:56:01.694Z,21.02
2024-05-09T10:58:03.462Z,21.01
2024-05-09T11:00:07.995Z,21.13
2024-05-09T11:02:12.320Z,21.25
2024-05-09T11:04:14.457Z,21.20
2024-05-09T11:06:16.698Z,21.17
2024-05-09T11:08:22.759Z,21.18
2024-05-09T11:10:33.334Z,21.19
2024-05-09T11:12:35.986Z,21.06
2024-05-09T11:14:37.891Z,21.07
2024-05-09T11:16:39.637Z,21.05
2024-05-09T11:18:41.541Z,21.05
2024-05-09T11:20:43.491Z,21.23
2024-05-09T11:22:45.545Z,21.64
2024-05-09T11:24:47.266Z,22.09
2024-05-09T11:26:49.197Z,22.44
2024-05-09T11:28:51.906Z,22.73
2024-05-09T11:31:06.181Z,22.79
2024-05-09T11:33:11.325Z,22.97
2024-05-09T11:35:13.006Z,23.62
2024-05-09T11:37:14.820Z,24.26
2024-05-09T11:39:16.598Z,24.51
2024-05-09T11:41:18.721Z,24.90
2024-05-09T11:43:21.042Z,24.93
2024-05-09T11:45:23.065Z,24.77
2024-05-09T11:47:24.919Z,24.74
2024-05-09T11:49:27.085Z,25.01
2024-05-09T11:51:29.030Z,25.47
2024-05-09T11:53:30.741Z,25.88
2024-05-09T11:55:36.986Z,25.70
2024-05-09T11:57:39.079Z,25.95
2024-05-09T11:59:41.777Z,25.47
2024-05-09T12:01:44.356Z,25.73
2024-05-09T12:03:46.317Z,25.82
2024-05-09T12:05:48.280Z,25.70
2024-05-09T12:07:51.159Z,25.98
2024-05-09T12:09:52.930Z,25.98
2024-05-09T12:11:54.700Z,25.46
2024-05-09T12:13:56.357Z,24.99
2024-05-09T12:15:58.423Z,24.29
2024-05-09T12:18:02.934Z,24.04
2024-05-09T12:20:11.339Z,23.84
2024-05-09T12:22:18.996Z,23.73
2024-05-09T12:24:20.684Z,23.73
2024-05-09T12:26:22.375Z,23.71
2024-05-09T12:28:24.292Z,23.78
2024-05-09T12:30:35.271Z,23.76
2024-05-09T12:32:40.529Z,23.79
2024-05-09T12:34:42.242Z,23.65
2024-05-09T12:36:44.099Z,23.59
2024-05-09T12:38:46.224Z,23.65
2024-05-09T12:40:48.036Z,23.64
2024-05-09T12:42:49.883Z,23.75
2024-05-09T12:44:51.624Z,24.30
2024-05-09T12:46:53.353Z,24.87
2024-05-09T12:48:55.983Z,25.16
2024-05-09T12:50:58.138Z,25.24
2024-05-09T12:52:59.797Z,25.80
2024-05-09T12:55:01.546Z,25.72
2024-05-09T12:57:03.415Z,25.88
2024-05-09T12:59:05.063Z,25.92
2024-05-09T13:01:07.035Z,26.06
2024-05-09T13:03:08.719Z,25.36
2024-05-09T13:05:11.775Z,24.68
2024-05-09T13:07:13.912Z,24.27
2024-05-09T13:09:16.092Z,23.96
2024-05-09T13:11:17.810Z,23.89
2024-05-09T13:13:19.730Z,23.97
2024-05-09T13:15:21.586Z,24.49
2024-05-09T13:17:23.347Z,25.04
2024-05-09T13:19:25.271Z,25.29
2024-05-09T13:21:26.948Z,25.57
2024-05-09T13:23:28.630Z,25.54
2024-05-09T13:25:30.442Z,25.57
2024-05-09T13:27:32.110Z,25.65
2024-05-09T13:29:33.871Z,26.14
2024-05-09T13:31:35.600Z,26.35
2024-05-09T13:33:37.546Z,26.87
2024-05-09T13:35:45.646Z,25.35
2024-05-09T13:37:51.200Z,24.81
2024-05-09T13:39:53.133Z,23.98
2024-05-09T13:41:55.245Z,24.49
2024-05-09T13:43:57.472Z,24.51
2024-05-09T13:46:19.903Z,25.06
2024-05-09T13:48:42.102Z,25.53
2024-05-09T13:51:04.615Z,25.27
2024-05-09T13:53:26.270Z,25.07
2024-05-09T13:55:48.456Z,24.82
2024-05-09T13:57:50.211Z,24.64
2024-05-09T13:59:52.056Z,24.49
2024-05-09T14:01:54.182Z,24.36
2024-05-09T14:03:56.124Z,24.35
2024-05-09T14:05:58.186Z,24.52
2024-05-09T14:08:00.703Z,24.97
2024-05-09T14:10:03.079Z,25.53
2024-05-09T14:12:07.406Z,25.68
2024-05-09T14:14:10.261Z,26.10
2024-05-09T14:16:12.063Z,26.48
2024-05-09T14:18:14.568Z,27.02
2024-05-09T14:20:27.243Z,27.77
2024-05-09T14:22:32.447Z,28.36
2024-05-09T14:24:34.180Z,28.78
2024-05-09T14:26:35.921Z,28.80
2024-05-09T14:28:38.009Z,28.37
2024-05-09T14:30:39.979Z,27.46
2024-05-09T14:32:42.013Z,27.08
2024-05-09T14:34:43.838Z,26.67
2024-05-09T14:36:45.497Z,26.35
2024-05-09T14:38:47.219Z,26.14
2024-05-09T14:40:50.402Z,25.95
2024-05-09T14:42:52.211Z,25.25
2024-05-09T14:44:54.016Z,24.90
2024-05-09T14:46:55.663Z,24.88
2024-05-09T14:48:59.404Z,24.78
2024-05-09T14:51:01.568Z,24.68
2024-05-09T14:53:03.344Z,24.29
2024-05-09T14:55:05.378Z,24.44
2024-05-09T14:57:07.296Z,24.95
2024-05-09T14:59:09.173Z,25.69
2024-05-09T15:01:11.761Z,25.94
2024-05-09T15:03:13.680Z,24.63
2024-05-09T15:05:15.487Z,23.79
2024-05-09T15:07:17.544Z,23.73
2024-05-09T15:09:19.405Z,23.93
2024-05-09T15:11:28.584Z,24.09
2024-05-09T15:13:30.612Z,24.64
2024-05-09T15:15:32.613Z,25.17
2024-05-09T15:17:34.519Z,25.70
2024-05-09T15:19:37.056Z,26.13
2024-05-09T15:21:39.304Z,27.00
2024-05-09T15:23:41.657Z,27.67
2024-05-09T15:25:44.727Z,28.29
2024-05-09T15:27:46.576Z,28.80
2024-05-09T15:29:48.233Z,28.94
2024-05-09T15:31:50.077Z,28.90
2024-05-09T15:33:51.801Z,28.74
2024-05-09T15:35:53.619Z,28.38
2024-05-09T15:37:56.068Z,28.09
2024-05-09T15:39:58.656Z,28.72
2024-05-09T15:42:00.949Z,29.49
2024-05-09T15:44:03.790Z,30.17
2024-05-09T15:46:07.581Z,30.35
2024-05-09T15:48:10.310Z,30.51
2024-05-09T15:50:20.092Z,30.20
2024-05-09T15:52:25.680Z,29.47
2024-05-09T15:54:27.653Z,28.82
2024-05-09T15:56:29.837Z,28.25
2024-05-09T15:58:31.699Z,27.27
2024-05-09T16:00:38.760Z,26.99
2024-05-09T16:02:43.587Z,26.71
2024-05-09T16:04:45.598Z,26.03
2024-05-09T16:06:47.989Z,25.60
2024-05-09T16:08:50.127Z,25.33
2024-05-09T16:10:51.985Z,24.89
2024-05-09T16:12:53.836Z,24.89
2024-05-09T16:14:55.662Z,24.54
2024-05-09T16:16:57.438Z,24.47
2024-05-09T16:18:59.191Z,24.36
2024-05-09T16:21:01.614Z,24.31
2024-05-09T16:23:03.346Z,24.28
2024-05-09T16:25:06.319Z,24.36
2024-05-09T16:27:08.744Z,24.17
2024-05-09T16:29:10.701Z,24.16
2024-05-09T16:31:12.812Z,24.12
2024-05-09T16:33:14.737Z,24.03
2024-05-09T16:35:16.460Z,23.98
2024-05-09T16:37:18.325Z,23.77
2024-05-09T16:39:20.065Z,23.75
2024-05-09T16:41:21.831Z,23.80
2024-05-09T16:43:24.257Z,24.02
2024-05-09T16:45:27.380Z,24.06
2024-05-09T16:47:29.205Z,24.08
2024-05-09T16:49:31.170Z,23.92
2024-05-09T16:51:32.878Z,23.80
2024-05-09T16:53:35.703Z,23.77
2024-05-09T16:55:38.303Z,23.45
2024-05-09T16:57:40.618Z,23.24
2024-05-09T16:59:42.366Z,23.20
2024-05-09T17:01:44.144Z,23.23
2024-05-09T17:03:46.196Z,23.14
2024-05-09T17:05:48.482Z,23.09
2024-05-09T17:07:50.702Z,23.05
2024-05-09T17:09:52.369Z,23.11
2024-05-09T17:11:54.157Z,23.15
2024-05-09T17:13:55.821Z,23.13
2024-05-09T17:15:57.648Z,23.11
2024-05-09T17:17:59.599Z,23.08
2024-05-09T17:20:01.209Z,23.14
2024-05-09T17:22:03.061Z,23.23
2024-05-09T17:24:04.891Z,23.21
2024-05-09T17:26:06.713Z,23.11
2024-05-09T17:28:09.531Z,22.77
2024-05-09T17:30:17.717Z,22.72
2024-05-09T17:32:25.803Z,22.70
2024-05-09T17:34:27.686Z,22.58
2024-05-09T17:36:29.326Z,22.59
2024-05-09T17:38:31.034Z,22.42
2024-05-09T17:40:35.716Z,22.35
2024-05-09T17:42:39.317Z,22.28
2024-05-09T17:44:40.998Z,22.13
2024-05-09T17:46:44.088Z,21.98
2024-05-09T17:48:46.262Z,21.94
2024-05-09T17:50:48.406Z,21.84
2024-05-09T17:52:52.842Z,21.80
2024-05-09T17:54:54.611Z,21.69
2024-05-09T17:56:56.448Z,21.65
2024-05-09T17:58:58.111Z,21.61
2024-05-09T18:00:59.936Z,21.63
2024-05-09T18:03:01.662Z,21.47
2024-05-09T18:05:03.635Z,21.43
2024-05-09T18:07:05.690Z,21.33
2024-05-09T18:09:07.366Z,21.26
2024-05-09T18:11:09.487Z,21.16
2024-05-09T18:13:13.003Z,21.09
2024-05-09T18:15:14.823Z,21.01
2024-05-09T18:17:16.936Z,20.86
2024-05-09T18:19:18.839Z,20.79
2024-05-09T18:21:21.261Z,20.77
2024-05-09T18:23:23.190Z,20.77
2024-05-09T18:25:25.220Z,20.74
2024-05-09T18:27:27.737Z,20.68
2024-05-09T18:29:29.505Z,20.53
2024-05-09T18:31:31.682Z,20.50
2024-05-09T18:33:33.790Z,20.50
2024-05-09T18:35:36.783Z,20.29
2024-05-09T18:37:40.254Z,20.24
2024-05-09T18:39:42.239Z,20.25
2024-05-09T18:41:43.968Z,20.23
2024-05-09T18:43:50.055Z,20.15
2024-05-09T18:45:52.427Z,20.08
2024-05-09T18:47:56.664Z,20.07
2024-05-09T18:49:58.962Z,20.04
2024-05-09T18:52:00.543Z,19.95
2024-05-09T18:54:02.264Z,19.87
2024-05-09T18:56:04.700Z,19.86
2024-05-09T18:58:06.890Z,19.64
2024-05-09T19:00:12.955Z,19.68
2024-05-09T19:02:18.049Z,19.64
2024-05-09T19:04:19.926Z,19.50
2024-05-09T19:06:24.667Z,19.51
2024-05-09T19:08:26.606Z,19.45
2024-05-09T19:10:33.889Z,19.40
2024-05-09T19:12:37.153Z,19.34
2024-05-09T19:14:38.864Z,19.35
2024-05-09T19:16:41.852Z,19.28
2024-05-09T19:18:43.669Z,19.20
2024-05-09T19:20:45.826Z,19.21
2024-05-09T19:22:47.801Z,19.15
2024-05-09T19:24:49.522Z,19.15
2024-05-09T19:26:51.500Z,19.10
2024-05-09T19:28:53.388Z,19.05
2024-05-09T19:30:55.075Z,18.99
2024-05-09T19:32:56.991Z,18.94
2024-05-09T19:34:59.757Z,18.95
2024-05-09T19:37:02.364Z,18.89
2024-05-09T19:39:04.113Z,18.91
2024-05-09T19:41:05.812Z,18.90
2024-05-09T19:43:07.643Z,18.82
2024-05-09T19:45:09.332Z,18.80
2024-05-09T19:47:11.506Z,18.81
2024-05-09T19:49:13.283Z,18.81
2024-05-09T19:51:15.121Z,18.77
2024-05-09T19:53:16.783Z,18.35
2024-05-09T19:55:18.484Z,17.64
2024-05-09T19:57:20.159Z,17.18
2024-05-09T19:59:21.835Z,16.48
2024-05-09T20:01:23.648Z,16.01
2024-05-09T20:03:25.671Z,15.42
2024-05-09T20:05:28.739Z,15.24
2024-05-09T20:07:32.215Z,14.89
2024-05-09T20:09:34.928Z,14.58
2024-05-09T20:11:38.443Z,14.43
2024-05-09T20:13:40.149Z,14.19
2024-05-09T20:15:41.938Z,13.90
2024-05-09T20:17:44.518Z,13.68
2024-05-09T20:19:46.408Z,13.51
2024-05-09T20:21:48.430Z,13.31
2024-05-09T20:23:50.128Z,13.05
2024-05-09T20:25:52.059Z,13.14
2024-05-09T20:27:54.038Z,13.14
2024-05-09T20:29:55.999Z,13.18
2024-05-09T20:31:57.744Z,13.21
2024-05-09T20:33:59.450Z,13.15
2024-05-09T20:36:02.425Z,13.13
2024-05-09T20:38:04.890Z,13.06
2024-05-09T20:40:12.044Z,13.08
2024-05-09T20:42:17.470Z,12.95
2024-05-09T20:44:19.114Z,12.76
2024-05-09T20:46:20.935Z,12.64
2024-05-09T20:48:23.910Z,12.56
2024-05-09T20:50:35.781Z,12.54
2024-05-09T20:52:41.495Z,12.49
2024-05-09T20:54:43.164Z,12.63
2024-05-09T20:56:45.662Z,12.65
2024-05-09T20:58:47.505Z,12.53
2024-05-09T21:00:49.261Z,12.66
2024-05-09T21:02:51.044Z,12.68
2024-05-09T21:04:52.798Z,12.67
2024-05-09T21:06:54.535Z,12.71
2024-05-09T21:08:58.345Z,12.71
2024-05-09T21:11:00.174Z,12.70
2024-05-09T21:13:03.151Z,12.65
2024-05-09T21:15:05.824Z,12.71
2024-05-09T21:17:07.620Z,12.70
2024-05-09T21:19:09.916Z,12.76
2024-05-09T21:21:11.554Z,12.74
2024-05-09T21:23:13.239Z,12.73
2024-05-09T21:25:15.015Z,12.71
2024-05-09T21:27:16.840Z,12.70
2024-05-09T21:29:18.567Z,12.68
2024-05-09T21:31:20.230Z,12.63
2024-05-09T21:33:22.211Z,12.63
2024-05-09T21:35:23.959Z,12.62
2024-05-09T21:37:25.636Z,12.54
2024-05-09T21:39:27.634Z,12.54
2024-05-09T21:41:29.307Z,12.55
2024-05-09T21:43:31.488Z,12.53
2024-05-09T21:45:33.745Z,12.49
2024-05-09T21:47:35.674Z,12.50
2024-05-09T21:49:37.461Z,12.38
2024-05-09T21:51:39.187Z,12.32
2024-05-09T21:53:40.968Z,12.31
2024-05-09T21:55:42.832Z,12.27
2024-05-09T21:57:44.698Z,12.20
2024-05-09T21:59:47.411Z,12.20
2024-05-09T22:01:49.302Z,11.91
2024-05-09T22:03:51.177Z,11.76
2024-05-09T22:05:52.902Z,11.57
2024-05-09T22:07:54.588Z,11.40
2024-05-09T22:09:56.331Z,11.52
2024-05-09T22:11:58.417Z,11.55
2024-05-09T22:14:00.127Z,11.39
2024-05-09T22:16:03.966Z,11.45
2024-05-09T22:18:07.460Z,11.48
2024-05-09T22:20:17.988Z,11.48
2024-05-09T22:22:23.796Z,11.37
2024-05-09T22:24:25.798Z,11.34
2024-05-09T22:26:27.506Z,11.20
2024-05-09T22:28:29.959Z,10.99
2024-05-09T22:30:37.175Z,10.98
2024-05-09T22:32:41.359Z,10.93
2024-05-09T22:34:43.096Z,10.84
2024-05-09T22:36:45.190Z,10.74
2024-05-09T22:38:46.884Z,10.61
2024-05-09T22:40:49.980Z,10.72
2024-05-09T22:42:51.963Z,10.63
2024-05-09T22:44:53.639Z,10.62
2024-05-09T22:46:55.360Z,10.66
2024-05-09T22:48:57.175Z,10.62
2024-05-09T22:50:59.016Z,10.48
2024-05-09T22:53:00.908Z,10.30
2024-05-09T22:55:05.047Z,10.31
2024-05-09T22:57:06.742Z,10.23
2024-05-09T22:59:08.435Z,10.15
2024-05-09T23:01:14.913Z,10.18
2024-05-09T23:03:16.950Z,10.16
2024-05-09T23:05:19.169Z,10.17
2024-05-09T23:07:21.161Z,10.10
2024-05-09T23:09:23.283Z,9.97
2024-05-09T23:11:24.934Z,9.82
2024-05-09T23:13:26.981Z,9.77
2024-05-09T23:15:28.789Z,9.71
2024-05-09T23:17:30.562Z,9.66
2024-05-09T23:19:32.321Z,9.64
2024-05-09T23:21:38.987Z,9.72
2024-05-09T23:23:40.685Z,9.58
2024-05-09T23:25:42.409Z,9.65
2024-05-09T23:27:44.187Z,9.59
2024-05-09T23:29:47.155Z,9.63
2024-05-09T23:31:48.862Z,9.63
2024-05-09T23:33:50.647Z,9.56
2024-05-09T23:35:52.476Z,9.46
2024-05-09T23:37:54.372Z,9.40
2024-05-09T23:39:56.197Z,9.39
2024-05-09T23:41:57.869Z,9.34
2024-05-09T23:43:59.543Z,9.32
2024-05-09T23:46:01.227Z,9.27
2024-05-09T23:48:03.716Z,9.29
2024-05-09T23:50:11.196Z,9.33
2024-05-09T23:52:18.219Z,9.17
2024-05-09T23:54:19.881Z,9.29
2024-05-09T23:56:21.608Z,9.24
2024-05-09T23:58:24.064Z,9.19
